Time;durP1;ratioP1;P1;durP2;ratioP2;P2;SDS_P1;SDS_P2;PMS_P1;PMS_P2;Temp;Humidity;BMP_temperature;BMP_pressure;BME280_temperature;BME280_humidity;BME280_pressure;Samples;Min_cycle;Max_cycle;Signal;HPM_P1;HPM_P2
2023/07/24 00:02:22;;;;;;;6.83;2.40;;;;;;;20.29;55.29;100118.81;4951737;28;20217;-74
2023/07/24 00:04:49;;;;;;;2.63;2.03;;;;;;;20.28;55.64;100115.38;4955324;28;20856;-75
2023/07/24 00:07:15;;;;;;;3.80;2.07;;;;;;;20.28;55.44;100107.34;4955512;28;20236;-74
2023/07/24 00:09:43;;;;;;;4.03;2.43;;;;;;;20.28;55.48;100101.22;4957323;28;20707;-74
2023/07/24 00:12:09;;;;;;;2.67;2.00;;;;;;;20.28;55.12;100101.97;4952855;28;20946;-74
2023/07/24 00:14:35;;;;;;;3.47;1.90;;;;;;;20.27;55.00;100103.13;4955157;28;20259;-74
2023/07/24 00:17:02;;;;;;;3.30;2.27;;;;;;;20.26;54.70;100098.16;4955233;28;20228;-74
2023/07/24 00:19:28;;;;;;;3.33;2.17;;;;;;;20.26;54.34;100098.94;4955353;28;20216;-74
2023/07/24 00:21:54;;;;;;;2.77;2.10;;;;;;;20.26;54.14;100093.56;4954927;28;20958;-74
2023/07/24 00:24:21;;;;;;;2.60;2.00;;;;;;;20.25;54.20;100096.66;4953331;28;20236;-75
2023/07/24 00:26:48;;;;;;;4.67;2.50;;;;;;;20.24;54.36;100092.47;4951804;28;20233;-75
2023/07/24 00:29:15;;;;;;;4.17;1.97;;;;;;;20.22;53.96;100098.22;4947817;28;20216;-74
2023/07/24 00:31:42;;;;;;;3.63;2.30;;;;;;;20.21;54.47;100085.97;4968791;28;21344;-74
2023/07/24 00:34:09;;;;;;;3.17;1.97;;;;;;;20.20;54.43;100091.72;4952025;28;21741;-74
2023/07/24 00:36:35;;;;;;;3.47;2.27;;;;;;;20.18;54.40;100092.13;4971498;28;20882;-74
2023/07/24 00:39:02;;;;;;;4.13;2.20;;;;;;;20.16;54.68;100082.97;4951659;28;20212;-74
2023/07/24 00:41:31;;;;;;;3.80;2.20;;;;;;;20.16;54.13;100082.97;4949593;28;20689;-74
2023/07/24 00:43:58;;;;;;;2.33;1.83;;;;;;;20.15;53.71;100086.81;4951078;28;20661;-74
2023/07/24 00:46:25;;;;;;;2.50;2.00;;;;;;;20.15;53.90;100086.81;4952065;28;20232;-74
2023/07/24 00:48:52;;;;;;;4.17;1.77;;;;;;;20.16;54.01;100083.72;4956439;28;20205;-74
2023/07/24 00:51:19;;;;;;;3.27;2.10;;;;;;;20.17;54.02;100079.88;4953372;28;21189;-74
2023/07/24 00:53:47;;;;;;;2.73;2.27;;;;;;;20.20;53.98;100086.38;4952086;28;20714;-74
2023/07/24 00:56:14;;;;;;;3.13;1.77;;;;;;;20.20;53.86;100084.47;4949889;28;20229;-74
2023/07/24 00:58:40;;;;;;;4.33;2.13;;;;;;;20.22;53.37;100081.34;4951481;28;20334;-74
2023/07/24 01:01:10;;;;;;;3.63;2.20;;;;;;;20.23;53.41;100078.28;4953120;28;20208;-74
2023/07/24 01:03:37;;;;;;;3.30;2.30;;;;;;;20.25;53.65;100073.28;4949504;28;20263;-74
2023/07/24 01:06:04;;;;;;;4.40;2.37;;;;;;;20.27;53.51;100067.50;4950997;28;20267;-74
2023/07/24 01:08:31;;;;;;;8.07;2.10;;;;;;;20.29;53.19;100062.50;4950227;28;20584;-74
2023/07/24 01:11:10;;;;;;;2.33;1.83;;;;;;;20.30;53.19;100067.47;4952566;28;20208;-74
2023/07/24 01:13:42;;;;;;;2.47;2.00;;;;;;;20.32;53.00;100057.09;4953356;28;20216;-74
2023/07/24 01:16:14;;;;;;;2.30;1.70;;;;;;;20.33;53.21;100063.97;4967358;28;20209;-74
2023/07/24 01:18:43;;;;;;;2.47;1.70;;;;;;;20.36;53.07;100054.38;4953075;28;20319;-74
2023/07/24 01:21:13;;;;;;;2.73;2.00;;;;;;;20.36;53.04;100049.00;4952048;28;21381;-74
2023/07/24 01:23:59;;;;;;;2.90;1.83;;;;;;;20.33;53.08;100049.81;4954044;28;20888;-73
2023/07/24 01:26:26;;;;;;;2.90;2.10;;;;;;;20.31;52.77;100046.78;4951951;28;20240;-74
2023/07/24 01:28:53;;;;;;;3.47;2.23;;;;;;;20.28;52.89;100048.34;4954909;28;20589;-74
2023/07/24 01:31:19;;;;;;;3.83;2.30;;;;;;;20.25;52.94;100046.47;4950257;28;20220;-74
2023/07/24 01:33:47;;;;;;;3.93;2.30;;;;;;;20.23;52.98;100042.69;4955629;28;20716;-74
2023/07/24 01:36:19;;;;;;;2.77;1.97;;;;;;;20.18;53.18;100035.81;4950563;28;22220;-73
2023/07/24 01:38:48;;;;;;;3.40;2.20;;;;;;;20.15;53.34;100036.66;4952624;28;20665;-74
2023/07/24 01:41:14;;;;;;;5.80;2.70;;;;;;;20.12;53.61;100029.41;4949933;28;21185;-74
2023/07/24 01:43:42;;;;;;;3.77;2.27;;;;;;;20.10;53.61;100025.59;4951785;28;20246;-74
2023/07/24 01:46:09;;;;;;;4.33;3.27;;;;;;;20.06;53.60;100020.25;4948939;28;20924;-74
2023/07/24 01:48:36;;;;;;;3.57;2.23;;;;;;;20.03;53.73;100009.59;4954006;28;21447;-74
2023/07/24 01:51:02;;;;;;;2.40;2.03;;;;;;;20.00;53.70;100015.72;4954071;28;20212;-74
2023/07/24 01:53:29;;;;;;;3.40;2.17;;;;;;;19.97;53.83;100025.34;4954192;28;20204;-74
2023/07/24 01:55:55;;;;;;;3.27;2.30;;;;;;;19.94;54.51;100023.47;4954222;28;20842;-74
2023/07/24 01:58:22;;;;;;;2.40;1.87;;;;;;;19.90;54.54;100013.94;4951411;28;20678;-74
2023/07/24 02:00:50;;;;;;;3.63;2.47;;;;;;;19.84;54.01;100008.28;4969605;28;20295;-74
2023/07/24 02:03:16;;;;;;;5.30;2.20;;;;;;;19.79;54.68;100013.31;4951898;28;22751;-74
2023/07/24 02:05:50;;;;;;;4.43;2.37;;;;;;;19.72;55.04;100011.47;4949983;28;20690;-73
2023/07/24 02:08:16;;;;;;;3.83;2.07;;;;;;;19.66;54.85;100015.00;4952145;28;21090;-74
2023/07/24 02:10:42;;;;;;;4.40;2.60;;;;;;;19.61;55.24;100018.09;4953796;28;20210;-73
2023/07/24 02:13:09;;;;;;;3.23;2.40;;;;;;;19.55;56.10;100020.44;4950421;28;20208;-74
2023/07/24 02:15:35;;;;;;;5.93;2.43;;;;;;;19.49;57.11;100024.72;4955162;28;20706;-74
2023/07/24 02:18:03;;;;;;;6.63;2.73;;;;;;;19.45;57.08;100023.25;4974202;28;20228;-74
2023/07/24 02:20:30;;;;;;;4.27;2.30;;;;;;;19.40;56.93;100018.31;4955679;28;20678;-74
2023/07/24 02:22:56;;;;;;;5.63;2.60;;;;;;;19.38;56.69;100017.94;4958391;28;21113;-74
2023/07/24 02:25:23;;;;;;;4.77;2.63;;;;;;;19.35;56.88;100014.16;4957878;28;20713;-74
2023/07/24 02:27:49;;;;;;;5.57;2.23;;;;;;;19.33;56.13;100015.69;4958463;28;20236;-74
2023/07/24 02:30:15;;;;;;;2.80;2.17;;;;;;;19.31;56.03;100018.75;4957279;28;21455;-74
2023/07/24 02:32:42;;;;;;;2.80;2.20;;;;;;;19.30;56.40;100027.97;4972761;28;20208;-74
2023/07/24 02:35:10;;;;;;;2.80;1.90;;;;;;;19.30;56.48;100022.59;4956299;28;20205;-74
2023/07/24 02:37:36;;;;;;;5.37;2.70;;;;;;;19.30;57.03;100014.56;4957424;28;20240;-74
2023/07/24 02:40:02;;;;;;;6.23;2.80;;;;;;;19.33;56.83;100010.34;4959701;28;20219;-74
2023/07/24 02:42:29;;;;;;;2.40;2.07;;;;;;;19.34;57.30;100012.63;4953128;28;20213;-74
2023/07/24 02:44:55;;;;;;;3.97;2.40;;;;;;;19.36;57.25;100009.56;4958065;28;20225;-74
2023/07/24 02:47:21;;;;;;;2.83;2.40;;;;;;;19.38;56.00;100012.59;4958248;28;22117;-74
2023/07/24 02:49:48;;;;;;;3.97;2.30;;;;;;;19.41;57.38;100017.16;4952869;28;20497;-74
2023/07/24 02:52:15;;;;;;;3.00;2.30;;;;;;;19.44;56.83;100009.09;4958177;28;20220;-74
2023/07/24 02:54:42;;;;;;;4.40;2.60;;;;;;;19.47;56.52;100007.53;4956988;28;21319;-74
2023/07/24 02:57:08;;;;;;;3.77;2.50;;;;;;;19.48;57.37;100020.53;4956580;28;20876;-74
2023/07/24 02:59:35;;;;;;;4.40;2.40;;;;;;;19.50;57.72;100025.50;4956537;28;20217;-74
2023/07/24 03:02:01;;;;;;;4.13;2.50;;;;;;;19.51;57.06;100017.03;4956712;28;20205;-73
2023/07/24 03:04:27;;;;;;;3.47;2.37;;;;;;;19.53;57.38;100019.34;4956508;28;21755;-74
2023/07/24 03:06:54;;;;;;;4.27;2.50;;;;;;;19.54;56.69;100013.59;4971092;28;20331;-74
2023/07/24 03:09:22;;;;;;;5.83;2.70;;;;;;;19.56;56.99;100016.59;4956224;28;20805;-74
2023/07/24 03:11:49;;;;;;;4.33;2.33;;;;;;;19.59;56.74;100015.06;4956459;28;21669;-74
2023/07/24 03:14:15;;;;;;;2.97;2.40;;;;;;;19.60;57.59;100020.00;4969617;28;21509;-74
2023/07/24 03:16:41;;;;;;;2.57;2.20;;;;;;;19.62;56.01;100017.69;4968662;28;20240;-74
2023/07/24 03:19:08;;;;;;;3.13;2.43;;;;;;;19.65;57.02;100018.81;4958801;28;20676;-74
2023/07/24 03:21:34;;;;;;;3.67;2.50;;;;;;;19.67;56.46;100013.84;4954841;28;20209;-74
2023/07/24 03:24:01;;;;;;;3.53;2.30;;;;;;;19.69;56.59;100009.59;4957584;28;20200;-74
2023/07/24 03:26:28;;;;;;;4.27;2.30;;;;;;;19.72;56.31;100016.06;4954163;28;20251;-74
2023/07/24 03:28:55;;;;;;;4.17;2.63;;;;;;;19.75;56.38;100013.34;4957432;28;20208;-74
2023/07/24 03:31:21;;;;;;;2.97;2.37;;;;;;;19.76;56.53;100022.91;4958199;28;20661;-74
2023/07/24 03:33:47;;;;;;;3.27;2.60;;;;;;;19.78;56.49;100017.16;4956225;28;20231;-74
2023/07/24 03:36:14;;;;;;;5.37;2.30;;;;;;;19.80;56.87;100010.22;4953860;28;20240;-74
2023/07/24 03:38:40;;;;;;;5.17;3.10;;;;;;;19.82;57.32;100007.91;4955739;28;20655;-74
2023/07/24 03:41:07;;;;;;;3.60;2.60;;;;;;;19.82;56.94;99999.88;4956926;28;20212;-74
2023/07/24 03:43:34;;;;;;;5.33;2.60;;;;;;;19.84;56.59;99999.47;4953089;28;21459;-74
2023/07/24 03:46:01;;;;;;;3.43;2.60;;;;;;;19.85;56.79;100006.34;4956232;28;20225;-74
2023/07/24 03:48:27;;;;;;;6.43;2.20;;;;;;;19.86;56.80;100002.53;4955023;28;20548;-74
2023/07/24 03:50:58;;;;;;;4.57;2.73;;;;;;;19.89;56.61;100009.75;4953318;28;20212;-75
2023/07/24 03:53:24;;;;;;;3.80;2.73;;;;;;;19.90;56.98;100013.94;4957048;28;20217;-74
2023/07/24 03:55:51;;;;;;;4.63;2.53;;;;;;;19.89;57.60;100013.19;4955724;28;20208;-74
2023/07/24 03:58:17;;;;;;;2.60;2.13;;;;;;;19.90;57.54;100017.38;4957464;28;20212;-74
2023/07/24 04:00:45;;;;;;;4.33;2.50;;;;;;;19.92;57.49;100008.97;4954134;28;20223;-74
2023/07/24 04:03:11;;;;;;;3.20;2.47;;;;;;;19.93;57.29;100008.53;4948821;28;20216;-74
2023/07/24 04:05:38;;;;;;;3.73;2.23;;;;;;;19.95;57.10;100011.59;4953095;28;20243;-74
2023/07/24 04:08:04;;;;;;;2.90;2.20;;;;;;;19.96;57.18;100012.31;4956471;28;20247;-74
2023/07/24 04:10:31;;;;;;;3.80;2.60;;;;;;;19.97;57.99;100008.50;4954300;28;20243;-74
2023/07/24 04:12:57;;;;;;;3.53;2.73;;;;;;;20.00;57.80;100005.00;4956650;28;20690;-74
2023/07/24 04:15:24;;;;;;;3.37;2.60;;;;;;;20.03;58.63;100006.91;4954822;28;20306;-74
2023/07/24 04:17:51;;;;;;;3.07;2.60;;;;;;;20.03;58.74;100006.91;4955359;28;20926;-74
2023/07/24 04:20:18;;;;;;;3.77;2.70;;;;;;;20.05;58.42;100002.66;4955070;28;21192;-74
2023/07/24 04:22:44;;;;;;;3.37;2.80;;;;;;;20.07;58.46;100013.00;4954753;28;20219;-74
2023/07/24 04:25:10;;;;;;;3.23;2.27;;;;;;;20.08;59.23;100004.53;4958780;28;20223;-74
2023/07/24 04:27:37;;;;;;;2.77;2.30;;;;;;;20.10;58.69;100012.19;4953732;28;20257;-74
2023/07/24 04:30:03;;;;;;;6.63;2.93;;;;;;;20.11;58.67;100008.34;4957977;28;21219;-74
2023/07/24 04:32:29;;;;;;;3.80;2.80;;;;;;;20.12;58.64;100002.59;4956265;28;20523;-74
2023/07/24 04:34:57;;;;;;;5.50;2.80;;;;;;;20.15;58.16;100003.69;4956362;28;20209;-74
2023/07/24 04:37:24;;;;;;;3.27;2.53;;;;;;;20.17;58.43;99991.41;4957093;28;20556;-74
2023/07/24 04:39:50;;;;;;;3.53;2.60;;;;;;;20.20;58.72;99985.25;4955907;28;21387;-74
2023/07/24 04:42:17;;;;;;;3.97;2.73;;;;;;;20.25;59.06;99992.09;4954335;28;20962;-74
2023/07/24 04:44:43;;;;;;;3.00;2.23;;;;;;;20.30;59.19;99997.00;4955441;28;20216;-74
2023/07/24 04:47:09;;;;;;;3.30;2.53;;;;;;;20.38;58.51;99999.16;4953630;28;20224;-74
2023/07/24 04:49:36;;;;;;;5.43;2.97;;;;;;;20.43;59.19;99987.25;4954111;28;20213;-74
2023/07/24 04:52:04;;;;;;;3.60;2.60;;;;;;;20.50;59.75;99987.88;4955468;28;20212;-74
2023/07/24 04:54:31;;;;;;;2.73;2.40;;;;;;;20.59;58.20;99990.06;4953934;28;20903;-73
2023/07/24 04:56:57;;;;;;;3.53;2.73;;;;;;;20.67;58.21;99980.72;4950693;28;21234;-74
2023/07/24 04:59:24;;;;;;;4.20;3.07;;;;;;;20.75;57.98;99974.84;4952710;28;20223;-74
2023/07/24 05:01:50;;;;;;;3.70;2.40;;;;;;;20.82;57.32;99974.75;4954416;28;20669;-74
2023/07/24 05:04:17;;;;;;;3.87;2.80;;;;;;;20.91;56.43;99971.56;4956234;28;20347;-74
2023/07/24 05:06:43;;;;;;;6.03;2.67;;;;;;;21.00;56.37;99974.50;4954200;28;20232;-74
2023/07/24 05:09:11;;;;;;;4.60;2.77;;;;;;;21.05;56.33;99964.03;4955255;28;20212;-75
2023/07/24 05:11:37;;;;;;;3.93;2.60;;;;;;;21.12;56.28;99963.88;4951914;28;20215;-74
2023/07/24 05:14:03;;;;;;;3.73;2.70;;;;;;;21.18;56.59;99956.91;4955588;28;21408;-74
2023/07/24 05:16:31;;;;;;;4.10;2.87;;;;;;;21.23;55.85;99956.44;4956209;28;20250;-74
2023/07/24 05:18:57;;;;;;;4.50;3.07;;;;;;;21.26;55.29;99952.91;4972672;28;21671;-74
2023/07/24 05:21:23;;;;;;;6.53;3.00;;;;;;;21.29;54.74;99945.94;4954283;28;20216;-74
2023/07/24 05:23:50;;;;;;;3.17;2.40;;;;;;;21.33;54.91;99949.34;4954826;28;20217;-74
2023/07/24 05:26:18;;;;;;;3.00;2.60;;;;;;;21.35;54.85;99949.66;4954288;28;20526;-74
2023/07/24 05:28:45;;;;;;;4.20;3.40;;;;;;;21.39;54.46;99953.81;4955834;28;20216;-74
2023/07/24 05:31:11;;;;;;;5.57;2.70;;;;;;;21.45;54.63;99946.78;4955408;28;20209;-74
2023/07/24 05:33:38;;;;;;;3.93;2.60;;;;;;;21.50;53.93;99953.59;4953345;28;21596;-74
2023/07/24 05:36:04;;;;;;;7.90;2.80;;;;;;;21.57;54.13;99942.75;4955262;28;20208;-74
2023/07/24 05:38:32;;;;;;;6.73;2.80;;;;;;;21.64;53.93;99947.97;4952264;28;20213;-74
2023/07/24 05:40:59;;;;;;;3.37;2.63;;;;;;;21.70;52.90;99939.03;4951366;28;20223;-74
2023/07/24 05:43:26;;;;;;;5.80;2.80;;;;;;;21.77;52.87;99940.81;4955550;28;20901;-74
2023/07/24 05:45:54;;;;;;;3.77;2.70;;;;;;;21.86;52.71;99946.38;4955320;28;20247;-74
2023/07/24 05:48:21;;;;;;;4.97;2.90;;;;;;;21.94;52.77;99945.06;4955591;28;20204;-74
2023/07/24 05:50:48;;;;;;;6.87;3.03;;;;;;;22.04;52.40;99944.81;4949473;28;20209;-74
2023/07/24 05:53:14;;;;;;;3.60;2.50;;;;;;;22.12;52.13;99953.50;4955102;28;20221;-74
2023/07/24 05:55:42;;;;;;;3.20;2.67;;;;;;;22.22;52.42;99947.13;4955157;28;20940;-74
2023/07/24 05:58:09;;;;;;;5.30;2.23;;;;;;;22.30;51.44;99948.50;4950406;28;20698;-74
2023/07/24 06:00:36;;;;;;;3.80;2.30;;;;;;;22.38;50.99;99947.91;4951222;28;20212;-74
2023/07/24 06:03:03;;;;;;;2.97;2.47;;;;;;;22.46;51.26;99943.91;4953991;28;20334;-74
2023/07/24 06:05:29;;;;;;;3.60;2.67;;;;;;;22.53;51.29;99942.97;4954950;28;20212;-74
2023/07/24 06:07:56;;;;;;;4.13;2.40;;;;;;;22.62;50.36;99941.19;4953945;28;20251;-74
2023/07/24 06:10:22;;;;;;;5.27;3.43;;;;;;;22.71;50.51;99930.59;4953356;28;20427;-74
2023/07/24 06:12:48;;;;;;;4.10;2.30;;;;;;;22.79;49.55;99931.19;4955105;28;20217;-74
2023/07/24 06:15:15;;;;;;;8.73;2.60;;;;;;;22.88;50.25;99936.75;4953606;28;20245;-74
2023/07/24 06:17:42;;;;;;;3.20;2.60;;;;;;;22.96;49.67;99938.81;4954288;28;20224;-74
2023/07/24 06:20:09;;;;;;;3.63;2.70;;;;;;;23.04;49.31;99939.41;4954273;28;20234;-74
2023/07/24 06:22:35;;;;;;;3.47;2.47;;;;;;;23.14;48.77;99943.75;4955364;28;20220;-74
2023/07/24 06:25:01;;;;;;;2.90;2.47;;;;;;;23.23;47.93;99932.38;4956131;28;20792;-74
2023/07/24 06:27:28;;;;;;;3.97;2.90;;;;;;;23.30;49.56;99930.25;4952842;28;20239;-74
2023/07/24 06:29:54;;;;;;;3.53;2.70;;;;;;;23.41;49.15;99933.41;4951985;28;20213;-75
2023/07/24 06:32:20;;;;;;;5.00;2.50;;;;;;;23.47;48.38;99929.00;4954395;28;20600;-74
2023/07/24 06:35:08;;;;;;;3.03;2.23;;;;;;;23.59;47.88;99926.34;4953362;28;20347;-74
2023/07/24 06:37:34;;;;;;;3.23;2.70;;;;;;;23.69;47.65;99938.03;4956232;28;20232;-74
2023/07/24 06:40:01;;;;;;;4.07;2.83;;;;;;;23.78;46.60;99944.31;4953841;28;20213;-74
2023/07/24 06:42:27;;;;;;;3.97;2.37;;;;;;;23.90;47.41;99942.84;4953108;28;20219;-73
2023/07/24 06:44:54;;;;;;;3.10;2.53;;;;;;;23.98;46.07;99930.66;4954856;28;20228;-74
2023/07/24 06:47:20;;;;;;;3.43;2.60;;;;;;;24.07;46.46;99930.00;4952566;28;21538;-74
2023/07/24 06:49:47;;;;;;;3.13;2.40;;;;;;;24.16;47.03;99927.41;4955059;28;21750;-73
2023/07/24 06:52:15;;;;;;;2.90;2.50;;;;;;;24.25;46.31;99924.81;4953212;28;21322;-74
2023/07/24 06:54:41;;;;;;;4.33;2.80;;;;;;;24.35;46.30;99932.56;4953111;28;20216;-73
2023/07/24 06:57:07;;;;;;;3.13;2.50;;;;;;;24.42;44.57;99928.91;4952897;28;21409;-73
2023/07/24 06:59:34;;;;;;;4.47;2.35;;;;;;;24.50;44.96;99928.25;4953260;28;20208;-73
2023/07/24 07:02:00;;;;;;;2.90;2.30;;;;;;;24.61;45.46;99917.16;4955679;28;20213;-73
2023/07/24 07:04:26;;;;;;;4.40;2.55;;;;;;;24.68;44.79;99925.00;4955071;28;20204;-74
2023/07/24 07:06:53;;;;;;;2.75;2.30;;;;;;;24.76;45.76;99912.78;4951655;28;20236;-73
2023/07/24 07:09:20;;;;;;;3.10;2.40;;;;;;;24.83;44.12;99904.44;4957597;28;20216;-73
2023/07/24 07:11:47;;;;;;;2.70;2.38;;;;;;;24.95;45.02;99907.09;4955565;28;20200;-73
2023/07/24 07:14:13;;;;;;;4.05;2.70;;;;;;;25.04;45.10;99909.13;4952396;28;20915;-74
2023/07/24 07:16:40;;;;;;;3.63;2.63;;;;;;;25.11;44.96;99906.16;4956350;28;20228;-73
2023/07/24 07:19:09;;;;;;;3.08;2.50;;;;;;;25.20;44.77;99896.19;4958093;28;20213;-73
2023/07/24 07:21:35;;;;;;;2.90;2.50;;;;;;;25.28;42.91;99902.13;4956354;28;20531;-74
2023/07/24 07:24:01;;;;;;;4.40;2.75;;;;;;;25.37;44.57;99908.34;4956243;28;20213;-73
2023/07/24 07:26:30;;;;;;;57.17;9.27;;;;;;;25.46;44.55;99916.50;4955365;28;21363;-73
2023/07/24 07:28:56;;;;;;;8.27;2.42;;;;;;;25.54;43.91;99917.75;4958427;28;20216;-73
2023/07/24 07:31:22;;;;;;;2.63;1.90;;;;;;;25.68;43.38;99922.63;4953990;28;20246;-73
2023/07/24 07:33:49;;;;;;;2.67;2.22;;;;;;;25.77;44.37;99906.47;4956932;28;20235;-73
2023/07/24 07:36:15;;;;;;;2.85;2.10;;;;;;;25.88;44.12;99909.53;4956186;28;20231;-73
2023/07/24 07:38:41;;;;;;;3.15;2.30;;;;;;;25.98;43.36;99907.63;4955162;28;20590;-73
2023/07/24 07:41:08;;;;;;;3.58;2.40;;;;;;;26.05;41.95;99907.38;4955961;28;20212;-73
2023/07/24 07:43:36;;;;;;;5.70;2.22;;;;;;;26.14;42.04;99904.69;4956824;28;20212;-73
2023/07/24 07:46:02;;;;;;;2.28;2.03;;;;;;;26.23;41.96;99907.41;4956733;28;20212;-73
2023/07/24 07:48:29;;;;;;;3.33;2.10;;;;;;;26.29;42.09;99902.91;4993823;23;20247;-72
2023/07/24 07:50:55;;;;;;;2.38;2.10;;;;;;;26.34;42.54;99907.75;4973301;28;20208;-72
2023/07/24 07:53:21;;;;;;;2.30;1.80;;;;;;;26.40;42.04;99903.25;4974755;28;20212;-72
2023/07/24 07:55:56;;;;;;;2.20;2.00;;;;;;;26.48;41.26;99909.91;4976836;28;21246;-72
2023/07/24 07:58:23;;;;;;;2.80;2.10;;;;;;;26.55;41.37;99906.88;4977260;28;20329;-73
2023/07/24 08:00:50;;;;;;;2.28;2.00;;;;;;;26.65;42.37;99901.06;4971411;28;21131;-72
2023/07/24 08:03:17;;;;;;;2.63;2.10;;;;;;;26.72;40.98;99906.19;4968918;28;20223;-72
2023/07/24 08:05:43;;;;;;;3.05;2.13;;;;;;;26.83;40.78;99911.19;4975055;28;20216;-72
2023/07/24 08:08:09;;;;;;;2.55;1.98;;;;;;;26.93;42.18;99902.59;4976174;28;20235;-72
2023/07/24 08:10:37;;;;;;;3.13;2.10;;;;;;;27.04;40.90;99886.63;4974413;28;20387;-72
2023/07/24 08:13:04;;;;;;;2.45;2.00;;;;;;;27.14;40.82;99879.97;4975672;28;20230;-71
2023/07/24 08:15:35;;;;;;;2.65;1.85;;;;;;;27.24;39.70;99870.66;4974020;28;20327;-72
2023/07/24 08:18:03;;;;;;;3.30;1.77;;;;;;;27.37;40.87;99871.25;4975034;28;21000;-71
2023/07/24 08:20:29;;;;;;;2.70;2.13;;;;;;;27.49;39.56;99872.25;4973664;28;20214;-71
2023/07/24 08:22:55;;;;;;;3.67;2.15;;;;;;;27.59;40.49;99874.50;4974410;28;20204;-72
2023/07/24 08:25:22;;;;;;;2.40;2.13;;;;;;;27.65;38.72;99867.25;4974631;28;20223;-71
2023/07/24 08:27:48;;;;;;;2.70;2.00;;;;;;;27.79;39.80;99869.34;4976287;28;20232;-72
2023/07/24 08:30:15;;;;;;;3.20;2.05;;;;;;;27.80;37.91;99870.06;4976697;28;20220;-71
2023/07/24 08:32:42;;;;;;;2.67;2.00;;;;;;;27.88;39.17;99865.81;4972473;28;20208;-71
2023/07/24 08:35:09;;;;;;;3.53;2.40;;;;;;;27.95;37.53;99858.09;4974063;28;20208;-72
2023/07/24 08:37:36;;;;;;;3.35;2.20;;;;;;;27.99;39.13;99858.69;4975097;28;20235;-71
2023/07/24 08:40:02;;;;;;;3.80;2.45;;;;;;;28.02;37.38;99860.47;4974768;28;20604;-72
2023/07/24 08:42:29;;;;;;;5.63;2.45;;;;;;;28.05;37.57;99862.28;4973864;28;20783;-71
2023/07/24 08:44:57;;;;;;;6.50;2.65;;;;;;;28.17;37.48;99855.13;4974007;28;20218;-72
2023/07/24 08:47:25;;;;;;;3.08;2.47;;;;;;;28.20;37.24;99854.19;4973193;28;20223;-71
2023/07/24 08:49:54;;;;;;;8.15;3.97;;;;;;;28.27;36.49;99845.72;4988776;28;20315;-72
2023/07/24 08:52:22;;;;;;;9.13;3.75;;;;;;;28.28;36.53;99849.94;4975588;28;20203;-71
2023/07/24 08:54:50;;;;;;;7.10;2.70;;;;;;;28.27;35.96;99843.75;4972939;28;20208;-72
2023/07/24 08:57:17;;;;;;;3.60;2.00;;;;;;;28.38;36.65;99851.38;4971125;28;20227;-72
2023/07/24 08:59:43;;;;;;;5.93;2.78;;;;;;;28.41;36.95;99845.78;4973562;28;20219;-71
2023/07/24 09:02:10;;;;;;;27.38;7.45;;;;;;;28.49;36.52;99838.03;4975454;28;20215;-71
2023/07/24 09:04:36;;;;;;;5.47;2.97;;;;;;;28.49;36.80;99844.22;4974136;28;20208;-72
2023/07/24 09:07:03;;;;;;;9.40;2.72;;;;;;;28.55;36.99;99841.63;4976408;28;20234;-71
2023/07/24 09:09:32;;;;;;;4.03;2.28;;;;;;;28.51;35.89;99843.75;4972517;28;20831;-72
2023/07/24 09:11:59;;;;;;;3.30;2.53;;;;;;;28.43;35.56;99848.06;4970883;28;20302;-71
2023/07/24 09:14:30;;;;;;;3.22;2.30;;;;;;;28.49;36.54;99833.34;4973977;28;20900;-72
2023/07/24 09:17:04;;;;;;;13.85;5.45;;;;;;;28.54;36.58;99837.41;4973826;28;20212;-71
2023/07/24 09:19:31;;;;;;;78.68;16.23;;;;;;;28.62;37.19;99846.69;4973179;28;20707;-71
2023/07/24 09:22:08;;;;;;;41.42;9.48;;;;;;;28.67;36.99;99846.03;4975758;28;20215;-71
2023/07/24 09:24:36;;;;;;;4.53;2.72;;;;;;;28.67;35.43;99843.31;4973600;28;20337;-71
2023/07/24 09:27:06;;;;;;;18.08;4.35;;;;;;;28.61;35.65;99843.22;4973900;28;20223;-71
2023/07/24 09:29:33;;;;;;;24.77;6.32;;;;;;;28.68;35.98;99845.59;4974142;28;21244;-71
2023/07/24 09:32:00;;;;;;;12.73;4.78;;;;;;;28.78;36.77;99843.53;4973202;28;20834;-71
2023/07/24 09:34:26;;;;;;;5.68;3.00;;;;;;;28.84;36.37;99847.84;4971668;28;20212;-71
2023/07/24 09:36:52;;;;;;;4.45;2.92;;;;;;;28.93;36.53;99847.03;4971795;28;20211;-71
2023/07/24 09:39:23;;;;;;;5.15;2.92;;;;;;;29.00;35.61;99838.53;4974289;28;21546;-71
2023/07/24 09:41:52;;;;;;;3.38;2.65;;;;;;;29.06;35.74;99831.97;4971927;28;20203;-71
2023/07/24 09:44:18;;;;;;;3.70;2.75;;;;;;;29.07;34.67;99830.00;4972877;28;21512;-71
2023/07/24 09:46:45;;;;;;;5.88;2.53;;;;;;;29.03;35.50;99832.16;4972457;28;20215;-72
2023/07/24 09:49:12;;;;;;;24.58;5.60;;;;;;;28.97;33.50;99829.34;4976680;28;20223;-71
2023/07/24 09:51:38;;;;;;;9.05;2.70;;;;;;;28.99;34.76;99818.75;4972834;28;20234;-71
2023/07/24 09:54:10;;;;;;;4.70;2.80;;;;;;;29.02;35.18;99822.50;4965996;28;20653;-71
2023/07/24 09:56:37;;;;;;;4.68;2.50;;;;;;;28.95;35.30;99822.84;4970545;28;20219;-72
2023/07/24 09:59:06;;;;;;;4.28;2.70;;;;;;;28.94;34.83;99821.34;4976038;28;20220;-72
2023/07/24 10:01:33;;;;;;;4.30;2.63;;;;;;;28.95;34.85;99825.56;4974606;28;20211;-72
2023/07/24 10:04:00;;;;;;;3.08;2.50;;;;;;;28.90;35.07;99828.94;4991432;28;20219;-71
2023/07/24 10:06:29;;;;;;;3.03;2.45;;;;;;;28.93;34.87;99812.44;4974035;28;20219;-72
2023/07/24 10:08:55;;;;;;;3.03;2.42;;;;;;;28.85;33.88;99814.03;4972231;28;21565;-71
2023/07/24 10:11:23;;;;;;;3.20;2.30;;;;;;;28.92;35.30;99813.66;4971339;28;20227;-72
2023/07/24 10:13:51;;;;;;;5.03;2.50;;;;;;;28.92;34.05;99812.91;4971829;28;20200;-71
2023/07/24 10:16:18;;;;;;;2.80;2.45;;;;;;;28.97;35.20;99815.00;4975080;28;20788;-71
2023/07/24 10:18:46;;;;;;;4.35;3.05;;;;;;;29.03;34.85;99805.72;4973179;28;20616;-71
2023/07/24 10:21:13;;;;;;;3.70;2.50;;;;;;;29.11;35.54;99808.81;4972559;28;20214;-71
2023/07/24 10:23:43;;;;;;;3.50;2.35;;;;;;;29.11;34.34;99801.41;4974781;28;20216;-71
2023/07/24 10:26:10;;;;;;;4.25;2.40;;;;;;;29.19;34.58;99812.66;4974126;28;20204;-72
2023/07/24 10:28:38;;;;;;;4.43;2.78;;;;;;;29.19;33.88;99799.06;4970905;28;20715;-72
2023/07/24 10:31:08;;;;;;;3.25;2.60;;;;;;;29.20;33.73;99790.44;4972604;28;20200;-71
2023/07/24 10:33:38;;;;;;;3.00;2.40;;;;;;;29.26;34.43;99783.09;4974693;28;20930;-71
2023/07/24 10:36:06;;;;;;;4.95;2.60;;;;;;;29.30;34.48;99775.50;4973981;28;21805;-71
2023/07/24 10:38:35;;;;;;;3.42;2.22;;;;;;;29.35;34.84;99782.25;4977705;28;20227;-71
2023/07/24 10:41:03;;;;;;;3.67;2.92;;;;;;;29.36;33.52;99772.91;4977392;28;20843;-71
2023/07/24 10:43:30;;;;;;;3.22;2.53;;;;;;;29.38;33.75;99776.63;4979032;28;20291;-71
2023/07/24 10:45:56;;;;;;;6.85;2.65;;;;;;;29.40;34.18;99765.25;4991158;28;20674;-71
2023/07/24 10:48:25;;;;;;;4.50;3.03;;;;;;;29.44;33.57;99758.44;4978601;28;20223;-72
2023/07/24 10:50:53;;;;;;;5.30;3.42;;;;;;;29.49;34.22;99754.28;4975262;28;20208;-72
2023/07/24 10:53:21;;;;;;;3.55;2.95;;;;;;;29.59;33.81;99761.13;4975924;28;20199;-72
2023/07/24 10:55:50;;;;;;;3.85;3.03;;;;;;;29.64;33.31;99752.28;4974732;28;20211;-72
2023/07/24 10:58:16;;;;;;;5.35;3.08;;;;;;;29.68;32.67;99741.97;4977677;28;20235;-72
2023/07/24 11:00:44;;;;;;;5.20;2.65;;;;;;;29.77;32.63;99731.69;4974005;28;20208;-72
2023/07/24 11:03:12;;;;;;;3.60;2.53;;;;;;;29.88;33.34;99731.09;4973942;28;20204;-72
2023/07/24 11:05:40;;;;;;;10.82;4.60;;;;;;;29.94;32.57;99723.75;4977035;28;20215;-71
2023/07/24 11:08:13;;;;;;;4.50;3.08;;;;;;;30.04;33.37;99723.09;4976220;28;21221;-72
2023/07/24 11:10:45;;;;;;;8.13;3.28;;;;;;;30.05;31.46;99719.19;4974567;28;20215;-72
2023/07/24 11:13:12;;;;;;;5.40;3.58;;;;;;;30.10;32.35;99709.56;4975190;28;21373;-72
2023/07/24 11:15:38;;;;;;;7.78;3.67;;;;;;;30.10;31.46;99707.59;4975007;28;20295;-72
2023/07/24 11:18:08;;;;;;;5.43;3.38;;;;;;;30.12;31.87;99705.16;4971334;28;20227;-72
2023/07/24 11:20:37;;;;;;;4.20;3.40;;;;;;;30.17;32.12;99690.09;4977421;28;21203;-73
2023/07/24 11:23:03;;;;;;;7.03;3.30;;;;;;;30.23;32.47;99690.91;4975049;28;20211;-72
2023/07/24 11:25:32;;;;;;;7.00;3.13;;;;;;;30.32;32.37;99686.06;4979549;28;20215;-72
2023/07/24 11:27:58;;;;;;;4.30;3.25;;;;;;;30.34;31.54;99685.59;4974419;28;20827;-72
2023/07/24 11:30:25;;;;;;;4.20;3.17;;;;;;;30.30;30.71;99677.59;4975722;28;20214;-72